Time;durP1;ratioP1;P1;durP2;ratioP2;P2;SDS_P1;SDS_P2;PMS_P1;PMS_P2;Temp;Humidity;BMP_temperature;BMP_pressure;BME280_temperature;BME280_humidity;BME280_pressure;Samples;Min_cycle;Max_cycle;Signal;HPM_P1;HPM_P2
2022/11/21 00:00:54;;;;;;;;;;;;;;;3.30;100.00;97978.88;5075302;28;19924;-54
2022/11/21 00:03:19;;;;;;;;;;;;;;;3.31;100.00;97983.94;5074341;28;19927;-53
2022/11/21 00:05:45;;;;;;;;;;;;;;;3.61;100.00;97981.66;5071199;28;20324;-54
2022/11/21 00:08:11;;;;;;;;;;;;;;;3.86;100.00;97978.59;5073924;28;19927;-54
2022/11/21 00:10:36;;;;;;;;;;;;;;;3.68;100.00;97985.75;5074595;28;20295;-54
2022/11/21 00:13:02;;;;;;;;;;;;;;;3.72;100.00;97982.28;5075793;28;19974;-53
2022/11/21 00:15:27;;;;;;;;;;;;;;;3.80;100.00;97988.91;5072294;28;19920;-54
2022/11/21 00:17:52;;;;;;;;;;;;;;;3.70;100.00;97986.56;5075258;28;19977;-53
2022/11/21 00:20:18;;;;;;;;;;;;;;;3.96;100.00;97980.91;5072975;28;19930;-55
2022/11/21 00:22:43;;;;;;;;;;;;;;;3.81;100.00;97980.38;5073770;28;19935;-55
2022/11/21 00:25:08;;;;;;;;;;;;;;;4.03;100.00;97981.59;5074231;28;19931;-53
2022/11/21 00:27:34;;;;;;;;;;;;;;;3.88;100.00;97981.97;5074631;28;19931;-54
2022/11/21 00:29:59;;;;;;;;;;;;;;;4.39;100.00;97985.03;5073322;28;19920;-54
2022/11/21 00:32:24;;;;;;;;;;;;;;;4.53;100.00;97982.16;5074237;28;19916;-55
2022/11/21 00:34:49;;;;;;;;;;;;;;;3.85;100.00;97976.91;5071807;28;19917;-55
2022/11/21 00:37:15;;;;;;;;;;;;;;;4.18;100.00;97977.88;5073873;28;19916;-55
2022/11/21 00:39:40;;;;;;;;;;;;;;;4.26;100.00;97980.25;5073996;28;20611;-55
2022/11/21 00:42:05;;;;;;;;;;;;;;;4.12;100.00;97971.19;5073791;28;19981;-54
2022/11/21 00:44:30;;;;;;;;;;;;;;;4.49;100.00;97974.59;5073305;28;19964;-56
2022/11/21 00:46:56;;;;;;;;;;;;;;;4.53;100.00;97974.50;5072881;28;20547;-56
2022/11/21 00:49:21;;;;;;;;;;;;;;;4.61;100.00;97970.06;5073972;28;19920;-54
2022/11/21 00:51:46;;;;;;;;;;;;;;;4.57;100.00;97967.63;5073425;28;19916;-55
2022/11/21 00:54:11;;;;;;;;;;;;;;;4.51;100.00;97963.50;5073839;28;20003;-55
2022/11/21 00:56:37;;;;;;;;;;;;;;;4.48;100.00;97968.69;5073680;28;19931;-56
2022/11/21 00:59:02;;;;;;;;;;;;;;;4.30;100.00;97958.94;5073079;28;20000;-56
2022/11/21 01:01:28;;;;;;;;;;;;;;;4.18;100.00;97965.16;5073158;28;19920;-56
2022/11/21 01:03:54;;;;;;;;;;;;;;;3.75;100.00;97966.91;5071694;28;19916;-55
2022/11/21 01:06:19;;;;;;;;;;;;;;;3.80;100.00;97977.00;5070913;28;19962;-55
2022/11/21 01:08:44;;;;;;;;;;;;;;;3.94;100.00;97992.00;5074613;28;19969;-55
2022/11/21 01:11:11;;;;;;;;;;;;;;;3.84;100.00;98001.56;5073828;28;20010;-55
2022/11/21 01:13:36;;;;;;;;;;;;;;;3.66;100.00;97999.38;5073578;28;20351;-53
2022/11/21 01:16:05;;;;;;;;;;;;;;;3.74;100.00;98006.00;5072582;28;19965;-54
2022/11/21 01:18:31;;;;;;;;;;;;;;;3.55;100.00;98002.13;5072436;28;19924;-54
2022/11/21 01:21:00;;;;;;;;;;;;;;;3.37;100.00;98010.97;5074261;28;19925;-54
2022/11/21 01:23:26;;;;;;;;;;;;;;;3.22;100.00;98017.19;5073305;28;19966;-55
2022/11/21 01:25:51;;;;;;;;;;;;;;;3.30;100.00;98024.69;5069005;28;19920;-54
2022/11/21 01:28:16;;;;;;;;;;;;;;;3.41;100.00;98029.56;5070621;28;19921;-54
2022/11/21 01:30:42;;;;;;;;;;;;;;;3.30;100.00;98035.69;5071905;28;19916;-54
2022/11/21 01:33:07;;;;;;;;;;;;;;;3.03;100.00;98026.00;5104883;27;19924;-55
2022/11/21 01:35:32;;;;;;;;;;;;;;;3.49;100.00;98045.53;5069231;28;19924;-54
2022/11/21 01:37:57;;;;;;;;;;;;;;;3.41;100.00;98038.03;5072943;28;19927;-54
2022/11/21 01:40:22;;;;;;;;;;;;;;;3.43;100.00;98038.03;5071055;28;19926;-54
2022/11/21 01:42:50;;;;;;;;;;;;;;;3.45;100.00;98033.75;5104318;27;20018;-55
2022/11/21 01:45:34;;;;;;;;;;;;;;;3.39;100.00;98026.22;5073246;28;19963;-54
2022/11/21 01:48:00;;;;;;;;;;;;;;;3.68;100.00;98031.59;5072371;28;19920;-54
2022/11/21 01:50:25;;;;;;;;;;;;;;;3.59;100.00;98038.56;5071304;28;19916;-54
2022/11/21 01:52:50;;;;;;;;;;;;;;;3.62;100.00;98034.25;5104010;27;19916;-54
2022/11/21 01:55:15;;;;;;;;;;;;;;;3.57;100.00;98038.59;5064448;28;19919;-53
2022/11/21 01:57:41;;;;;;;;;;;;;;;3.45;100.00;98033.75;5103637;27;19924;-53
2022/11/21 02:00:07;;;;;;;;;;;;;;;3.13;100.00;98032.63;5072141;28;19935;-55
2022/11/21 02:02:33;;;;;;;;;;;;;;;3.22;100.00;98040.09;5072433;28;19931;-54
2022/11/21 02:04:59;;;;;;;;;;;;;;;3.43;100.00;98043.94;5070168;28;20217;-53
2022/11/21 02:07:24;;;;;;;;;;;;;;;3.05;100.00;98044.63;5072800;28;19927;-54
2022/11/21 02:09:54;;;;;;;;;;;;;;;2.95;100.00;98040.56;5071980;28;19927;-51
2022/11/21 02:12:38;;;;;;;;;;;;;;;3.20;100.00;98054.53;5103185;27;19927;-53
2022/11/21 02:15:04;;;;;;;;;;;;;;;3.12;100.00;98061.47;5073575;28;19955;-54
2022/11/21 02:17:29;;;;;;;;;;;;;;;2.97;100.00;98061.75;5062035;28;19924;-54
2022/11/21 02:19:56;;;;;;;;;;;;;;;3.01;100.00;98073.50;5070922;28;19975;-54
2022/11/21 02:22:33;;;;;;;;;;;;;;;2.92;100.00;98080.44;5103172;27;19920;-52
2022/11/21 02:24:59;;;;;;;;;;;;;;;2.77;100.00;98080.69;5073000;28;20460;-52
2022/11/21 02:27:24;;;;;;;;;;;;;;;2.93;100.00;98083.81;5071567;28;19924;-53
2022/11/21 02:29:49;;;;;;;;;;;;;;;3.07;100.00;98083.59;5075720;27;19921;-52
2022/11/21 02:32:21;;;;;;;;;;;;;;;3.03;100.00;98099.75;5040661;28;19917;-55
2022/11/21 02:34:47;;;;;;;;;;;;;;;3.07;100.00;98093.78;5038732;28;20030;-55
2022/11/21 02:37:12;;;;;;;;;;;;;;;3.35;100.00;98110.25;5041884;28;20083;-54
2022/11/21 02:39:37;;;;;;;;;;;;;;;3.19;100.00;98093.56;5040387;28;19947;-55
2022/11/21 02:42:04;;;;;;;;;;;;;;;3.53;100.00;98098.06;5041114;28;19923;-55
2022/11/21 02:44:56;;;;;;;;;;;;;;;3.49;100.00;98091.34;5040628;28;19916;-53
2022/11/21 02:47:21;;;;;;;;;;;;;;;3.38;100.00;98086.47;5039459;28;20015;-53
2022/11/21 02:49:57;;;;;;;;;;;;;;;3.27;100.00;98094.28;5040793;28;20007;-52
2022/11/21 02:52:22;;;;;;;;;;;;;;;3.15;100.00;98091.94;5038621;28;20013;-53
2022/11/21 02:54:47;;;;;;;;;;;;;;;3.48;100.00;98094.75;5040858;28;20006;-54
2022/11/21 02:57:12;;;;;;;;;;;;;;;3.48;100.00;98097.31;5041378;28;19993;-54
2022/11/21 02:59:37;;;;;;;;;;;;;;;3.56;100.00;98092.94;5040873;28;20078;-54
2022/11/21 03:02:03;;;;;;;;;;;;;;;3.67;100.00;98096.13;5056125;28;19956;-55
2022/11/21 03:04:28;;;;;;;;;;;;;;;3.46;100.00;98091.41;5040233;28;19917;-54
2022/11/21 03:06:54;;;;;;;;;;;;;;;3.66;100.00;98094.41;5039807;28;19928;-55
2022/11/21 03:09:19;;;;;;;;;;;;;;;3.88;100.00;98096.56;5040671;28;20412;-54
2022/11/21 03:11:44;;;;;;;;;;;;;;;3.66;100.00;98078.31;5039771;28;19920;-52
2022/11/21 03:14:09;;;;;;;;;;;;;;;3.60;100.00;98079.25;5041951;28;19924;-55
2022/11/21 03:16:35;;;;;;;;;;;;;;;3.55;100.00;98083.59;5041083;28;19921;-52
2022/11/21 03:19:00;;;;;;;;;;;;;;;3.66;100.00;98079.16;5040059;28;20349;-56
2022/11/21 03:21:25;;;;;;;;;;;;;;;3.82;100.00;98086.50;5041301;28;20297;-55
2022/11/21 03:23:50;;;;;;;;;;;;;;;3.82;100.00;98083.94;5040943;28;19985;-53
2022/11/21 03:26:16;;;;;;;;;;;;;;;3.78;100.00;98078.91;5042272;28;20008;-54
2022/11/21 03:28:41;;;;;;;;;;;;;;;3.94;100.00;98074.34;5039053;28;19989;-55
2022/11/21 03:31:07;;;;;;;;;;;;;;;3.74;100.00;98062.03;5040953;28;19928;-55
2022/11/21 03:33:32;;;;;;;;;;;;;;;3.87;100.00;98064.31;5040840;28;20548;-55
2022/11/21 03:35:57;;;;;;;;;;;;;;;3.75;100.00;98058.59;5039367;28;20011;-53
2022/11/21 03:38:22;;;;;;;;;;;;;;;4.07;100.00;98059.66;5040427;28;19964;-55
2022/11/21 03:40:47;;;;;;;;;;;;;;;4.30;100.00;98055.78;5040659;28;19920;-55
2022/11/21 03:43:13;;;;;;;;;;;;;;;4.14;100.00;98042.53;5041261;28;19925;-55
2022/11/21 03:45:38;;;;;;;;;;;;;;;4.58;100.00;98045.78;5041369;28;19921;-52
2022/11/21 03:48:03;;;;;;;;;;;;;;;4.89;100.00;98025.50;5039317;28;19968;-53
2022/11/21 03:50:29;;;;;;;;;;;;;;;4.93;100.00;98016.88;5041173;28;19921;-55
2022/11/21 03:52:54;;;;;;;;;;;;;;;4.82;100.00;98008.66;5039676;28;19912;-55
2022/11/21 03:55:19;;;;;;;;;;;;;;;4.56;100.00;98002.50;5041494;28;19917;-54
2022/11/21 03:57:44;;;;;;;;;;;;;;;4.37;100.00;98011.44;5041301;28;19939;-54
2022/11/21 04:00:10;;;;;;;;;;;;;;;4.54;100.00;98024.63;5041081;28;20015;-55
2022/11/21 04:02:35;;;;;;;;;;;;;;;4.72;100.00;98018.25;5040292;28;19974;-56
2022/11/21 04:05:00;;;;;;;;;;;;;;;4.80;100.00;98015.50;5040473;28;19921;-55
2022/11/21 04:07:26;;;;;;;;;;;;;;;4.83;100.00;98015.44;5044427;28;20019;-54
2022/11/21 04:09:51;;;;;;;;;;;;;;;4.81;100.00;98005.28;5043551;28;19921;-54
2022/11/21 04:12:16;;;;;;;;;;;;;;;5.11;100.00;98010.47;5044304;28;19948;-54
2022/11/21 04:14:41;;;;;;;;;;;;;;;5.12;100.00;98001.09;5044358;28;19928;-54
2022/11/21 04:17:07;;;;;;;;;;;;;;;5.24;100.00;97993.97;5043099;28;19929;-54
2022/11/21 04:19:32;;;;;;;;;;;;;;;5.31;100.00;98002.28;5042644;28;19971;-55
2022/11/21 04:21:57;;;;;;;;;;;;;;;5.71;100.00;97990.13;5045154;28;20813;-55
2022/11/21 04:24:22;;;;;;;;;;;;;;;5.78;100.00;97982.25;5044252;28;20424;-55
2022/11/21 04:26:48;;;;;;;;;;;;;;;5.90;100.00;97970.81;5044407;28;19927;-54
2022/11/21 04:29:13;;;;;;;;;;;;;;;5.79;100.00;97965.19;5042882;28;20003;-55
2022/11/21 04:31:38;;;;;;;;;;;;;;;5.81;100.00;97958.31;5045344;28;19960;-53
2022/11/21 04:34:03;;;;;;;;;;;;;;;5.14;100.00;97951.69;5044127;28;19928;-54
2022/11/21 04:36:29;;;;;;;;;;;;;;;5.67;100.00;97953.63;5041341;28;21133;-54
2022/11/21 04:38:54;;;;;;;;;;;;;;;6.02;100.00;97959.41;5042893;28;20634;-53
2022/11/21 04:41:19;;;;;;;;;;;;;;;5.63;100.00;97937.56;5043211;28;19920;-56
2022/11/21 04:43:44;;;;;;;;;;;;;;;5.21;100.00;97949.81;5043011;28;19971;-55
2022/11/21 04:46:09;;;;;;;;;;;;;;;5.46;100.00;97955.06;5043245;28;19935;-55
2022/11/21 04:48:35;;;;;;;;;;;;;;;5.76;100.00;97945.69;5043197;28;20958;-55
2022/11/21 04:51:00;;;;;;;;;;;;;;;4.71;100.00;97944.34;5044576;28;20406;-52
2022/11/21 04:53:25;;;;;;;;;;;;;;;4.95;100.00;97958.16;5042727;28;20610;-54
2022/11/21 04:55:50;;;;;;;;;;;;;;;5.75;100.00;97961.91;5043101;28;19943;-53
2022/11/21 04:58:16;;;;;;;;;;;;;;;5.94;100.00;97952.00;5041515;28;19925;-54
2022/11/21 05:00:41;;;;;;;;;;;;;;;5.38;100.00;97936.56;5042386;28;20422;-52
2022/11/21 05:03:06;;;;;;;;;;;;;;;5.29;100.00;97942.78;5057213;28;19932;-52
2022/11/21 05:05:32;;;;;;;;;;;;;;;5.70;100.00;97948.41;5038885;28;19920;-53
2022/11/21 05:07:57;;;;;;;;;;;;;;;5.74;100.00;97937.22;5042252;28;19921;-54
2022/11/21 05:10:22;;;;;;;;;;;;;;;6.10;100.00;97931.09;5041462;28;20113;-53
2022/11/21 05:15:31;;;;;;;;;;;;;;;5.95;100.00;97919.59;5042030;28;19970;-55
2022/11/21 05:17:59;;;;;;;;;;;;;;;5.43;100.00;97914.31;5040612;28;20313;-53
2022/11/21 05:20:24;;;;;;;;;;;;;;;5.39;100.00;97923.78;5040595;28;19935;-55
2022/11/21 05:22:50;;;;;;;;;;;;;;;5.99;100.00;97928.84;5040492;28;19920;-53
2022/11/21 05:25:15;;;;;;;;;;;;;;;5.92;100.00;97915.41;5040274;28;19952;-53
2022/11/21 05:27:40;;;;;;;;;;;;;;;5.87;100.00;97919.81;5040100;28;19913;-51
2022/11/21 05:30:06;;;;;;;;;;;;;;;5.99;100.00;97916.09;5039658;28;19916;-53
2022/11/21 05:32:31;;;;;;;;;;;;;;;5.94;100.00;97910.25;5040704;28;19947;-54
2022/11/21 05:34:56;;;;;;;;;;;;;;;6.01;100.00;97906.66;5041776;28;19921;-53
2022/11/21 05:37:22;;;;;;;;;;;;;;;6.19;100.00;97910.34;5039974;28;19925;-53
2022/11/21 05:39:47;;;;;;;;;;;;;;;6.32;100.00;97909.06;5041826;28;20419;-52
2022/11/21 05:42:12;;;;;;;;;;;;;;;6.22;100.00;97900.84;5041373;28;19924;-54
2022/11/21 05:44:37;;;;;;;;;;;;;;;6.21;100.00;97904.31;5042729;28;19921;-53
2022/11/21 05:47:03;;;;;;;;;;;;;;;6.25;100.00;97895.66;5044042;28;19979;-51
2022/11/21 05:49:28;;;;;;;;;;;;;;;6.18;100.00;97899.28;5040528;28;19966;-51
2022/11/21 05:51:53;;;;;;;;;;;;;;;6.09;100.00;97891.91;5041745;28;19917;-53
2022/11/21 05:54:18;;;;;;;;;;;;;;;6.37;100.00;97883.34;5040798;28;20385;-52
2022/11/21 05:56:44;;;;;;;;;;;;;;;6.16;100.00;97883.16;5044344;28;20042;-54
2022/11/21 05:59:09;;;;;;;;;;;;;;;6.18;100.00;97873.72;5038638;28;19924;-55
2022/11/21 06:04:18;;;;;;;;;;;;;;;5.94;100.00;97871.91;5041211;28;20014;-51
2022/11/21 06:06:43;;;;;;;;;;;;;;;6.17;100.00;97881.44;5040395;28;19962;-52
2022/11/21 06:09:09;;;;;;;;;;;;;;;6.06;100.00;97881.78;5040662;28;20389;-53
2022/11/21 06:11:34;;;;;;;;;;;;;;;5.54;100.00;97888.44;5040589;28;20266;-53
2022/11/21 06:13:59;;;;;;;;;;;;;;;5.32;100.00;97886.53;5041795;28;19921;-52
2022/11/21 06:16:24;;;;;;;;;;;;;;;4.96;100.00;97893.50;5040812;28;19917;-53
2022/11/21 06:18:53;;;;;;;;;;;;;;;5.33;100.00;97902.69;5041391;28;19920;-53
2022/11/21 06:21:18;;;;;;;;;;;;;;;4.94;100.00;97905.47;5041103;28;19924;-53
2022/11/21 06:23:44;;;;;;;;;;;;;;;5.38;100.00;97906.78;5041036;28;20606;-52
2022/11/21 06:26:13;;;;;;;;;;;;;;;5.77;100.00;97909.06;5042033;28;20388;-52
2022/11/21 06:28:38;;;;;;;;;;;;;;;5.15;100.00;97898.94;5038610;28;19932;-52
2022/11/21 06:31:03;;;;;;;;;;;;;;;5.42;100.00;97908.34;5056567;28;20390;-53
2022/11/21 06:33:29;;;;;;;;;;;;;;;5.30;100.00;97918.94;5040450;28;19917;-52
2022/11/21 06:35:54;;;;;;;;;;;;;;;5.35;100.00;97918.78;5040066;28;19924;-51
2022/11/21 06:38:19;;;;;;;;;;;;;;;4.88;100.00;97905.63;5040088;28;19970;-53
2022/11/21 06:40:44;;;;;;;;;;;;;;;4.84;100.00;97920.19;5041050;28;20534;-51
2022/11/21 06:43:10;;;;;;;;;;;;;;;5.12;100.00;97934.75;5040794;28;20417;-53
2022/11/21 06:45:35;;;;;;;;;;;;;;;5.61;100.00;97938.47;5041249;28;19913;-50
2022/11/21 06:48:01;;;;;;;;;;;;;;;6.36;100.00;97935.38;5040882;28;19912;-53
2022/11/21 06:50:26;;;;;;;;;;;;;;;6.42;100.00;97924.94;5041142;28;19920;-54
2022/11/21 06:52:51;;;;;;;;;;;;;;;6.33;100.00;97912.47;5040546;28;19917;-53
2022/11/21 06:55:16;;;;;;;;;;;;;;;6.41;100.00;97911.34;5040349;28;20262;-51
2022/11/21 06:57:42;;;;;;;;;;;;;;;6.55;100.00;97898.09;5039624;28;19924;-52
2022/11/21 07:00:07;;;;;;;;;;;;;;;6.63;100.00;97890.16;5040907;28;21078;-53
2022/11/21 07:02:32;;;;;;;;;;;;;;;6.59;100.00;97889.44;5040921;28;20258;-52
2022/11/21 07:04:57;;;;;;;;;;;;;;;6.34;100.00;97879.19;5039436;28;19917;-50
2022/11/21 07:07:23;;;;;;;;;;;;;;;5.97;100.00;97892.28;5040282;28;19928;-51
2022/11/21 07:09:48;;;;;;;;;;;;;;;5.91;100.00;97902.66;5040235;28;19917;-54
2022/11/21 07:14:57;;;;;;;;;;;;;;;6.43;100.00;97913.81;5040893;28;19979;-53
2022/11/21 07:17:22;;;;;;;;;;;;;;;6.22;100.00;97900.03;5039744;28;19917;-52
2022/11/21 07:19:48;;;;;;;;;;;;;;;6.55;100.00;97903.19;5039471;28;19991;-53
2022/11/21 07:22:13;;;;;;;;;;;;;;;6.35;100.00;97885.13;5040312;28;20015;-52
2022/11/21 07:24:38;;;;;;;;;;;;;;;6.23;100.00;97892.31;5041046;28;20731;-51
2022/11/21 07:27:03;;;;;;;;;;;;;;;5.28;100.00;97890.06;5040665;28;19917;-54
2022/11/21 07:29:28;;;;;;;;;;;;;;;4.24;100.00;97918.28;5039925;28;19916;-52
2022/11/21 07:31:54;;;;;;;;;;;;;;;4.26;100.00;97936.94;5040441;28;19916;-53
2022/11/21 07:34:19;;;;;;;;;;;;;;;5.54;100.00;97957.41;5040231;28;19917;-53
2022/11/21 07:36:44;;;;;;;;;;;;;;;6.26;100.00;97948.44;5038165;28;19923;-52
2022/11/21 07:39:09;;;;;;;;;;;;;;;6.05;100.00;97929.50;5039141;28;19920;-51
2022/11/21 07:41:35;;;;;;;;;;;;;;;4.60;100.00;97940.31;5044519;28;19956;-51
2022/11/21 07:44:00;;;;;;;;;;;;;;;5.15;100.00;97958.47;5043858;28;19967;-51
2022/11/21 07:46:25;;;;;;;;;;;;;;;4.80;100.00;97949.19;5044675;28;20419;-53
2022/11/21 07:48:50;;;;;;;;;;;;;;;5.84;100.00;97966.75;5044159;28;19924;-51
2022/11/21 07:51:16;;;;;;;;;;;;;;;5.96;100.00;97955.34;5043947;28;20771;-50
2022/11/21 07:53:41;;;;;;;;;;;;;;;5.78;100.00;97941.38;5043828;28;19917;-52
2022/11/21 07:56:08;;;;;;;;;;;;;;;5.39;100.00;97928.88;5044427;28;20329;-51
2022/11/21 07:58:33;;;;;;;;;;;;;;;4.86;100.00;97941.38;5043916;28;19921;-52
2022/11/21 08:01:01;;;;;;;;;;;;;;;5.24;100.00;97947.16;5044516;28;20259;-53
2022/11/21 08:03:26;;;;;;;;;;;;;;;5.45;100.00;97955.94;5043225;28;19921;-53
2022/11/21 08:05:52;;;;;;;;;;;;;;;4.78;100.00;97966.25;5044805;28;19994;-54
2022/11/21 08:08:17;;;;;;;;;;;;;;;4.56;100.00;97976.13;5042703;28;20370;-53
2022/11/21 08:10:43;;;;;;;;;;;;;;;5.22;100.00;97979.56;5043904;28;20374;-48
2022/11/21 08:13:08;;;;;;;;;;;;;;;5.54;100.00;97977.81;5044075;28;19912;-52
2022/11/21 08:15:34;;;;;;;;;;;;;;;5.23;100.00;97969.31;5043676;28;19921;-51
2022/11/21 08:18:06;;;;;;;;;;;;;;;5.78;100.00;97972.03;5044476;28;19921;-51
2022/11/21 08:20:31;;;;;;;;;;;;;;;5.96;100.00;97975.78;5042617;28;19917;-51
2022/11/21 08:22:57;;;;;;;;;;;;;;;5.99;100.00;97962.91;5042060;28;19939;-52
2022/11/21 08:25:22;;;;;;;;;;;;;;;5.72;100.00;97951.75;5044231;28;19924;-51
2022/11/21 08:27:47;;;;;;;;;;;;;;;6.06;100.00;97955.91;5042732;28;19928;-51
2022/11/21 08:30:13;;;;;;;;;;;;;;;6.33;100.00;97954.19;5043084;28;19921;-51
2022/11/21 08:32:38;;;;;;;;;;;;;;;6.59;100.00;97943.16;5042513;28;19917;-51
2022/11/21 08:35:03;;;;;;;;;;;;;;;5.99;100.00;97923.75;5042425;28;19916;-53
2022/11/21 08:37:29;;;;;;;;;;;;;;;6.55;100.00;97944.13;5042250;28;20417;-53
2022/11/21 08:39:54;;;;;;;;;;;;;;;6.94;100.00;97930.88;5040260;28;20004;-54
2022/11/21 08:42:19;;;;;;;;;;;;;;;6.82;100.00;97923.59;5043300;28;19917;-54
2022/11/21 08:44:44;;;;;;;;;;;;;;;6.76;100.00;97913.59;5042117;28;20325;-54
2022/11/21 08:47:10;;;;;;;;;;;;;;;6.87;100.00;97901.28;5043062;28;19920;-54
2022/11/21 08:49:35;;;;;;;;;;;;;;;7.27;100.00;97904.97;5042838;28;19917;-53
2022/11/21 08:52:00;;;;;;;;;;;;;;;7.66;100.00;97899.25;5042260;28;19974;-51
2022/11/21 08:54:25;;;;;;;;;;;;;;;7.66;100.00;97882.19;5043171;28;19920;-54
2022/11/21 08:56:51;;;;;;;;;;;;;;;7.77;100.00;97875.78;5042902;28;20047;-54
2022/11/21 08:59:16;;;;;;;;;;;;;;;7.79;100.00;97871.44;5041279;28;19950;-55
2022/11/21 09:01:42;;;;;;;;;;;;;;;7.70;100.00;97854.69;5042699;28;19917;-54
2022/11/21 09:04:07;;;;;;;;;;;;;;;7.87;100.00;97857.44;5042788;28;19921;-54
2022/11/21 09:06:32;;;;;;;;;;;;;;;7.84;100.00;97838.78;5042270;28;19917;-53
2022/11/21 09:08:58;;;;;;;;;;;;;;;6.82;100.00;97854.50;5042228;28;19939;-55
2022/11/21 09:11:26;;;;;;;;;;;;;;;6.16;100.00;97857.59;5041040;28;19997;-56
2022/11/21 09:19:33;;;;;;;;;;;;;;;5.25;100.00;97925.88;5042585;28;19928;-55
2022/11/21 09:21:59;;;;;;;;;;;;;;;4.96;100.00;97945.38;5042671;28;19917;-56
2022/11/21 09:24:24;;;;;;;;;;;;;;;5.17;100.00;97958.44;5042560;28;19917;-56
2022/11/21 09:26:49;;;;;;;;;;;;;;;6.11;100.00;97966.81;5042895;28;20333;-57
2022/11/21 09:29:15;;;;;;;;;;;;;;;5.38;100.00;97973.16;5042603;28;20324;-57
2022/11/21 09:31:40;;;;;;;;;;;;;;;5.41;100.00;97983.28;5042274;28;19913;-57
2022/11/21 09:34:06;;;;;;;;;;;;;;;6.59;100.00;97973.84;5042464;28;19927;-56
2022/11/21 09:36:31;;;;;;;;;;;;;;;6.19;100.00;97967.41;5040011;28;19921;-56
2022/11/21 09:38:56;;;;;;;;;;;;;;;6.06;100.00;97951.63;5040248;28;20432;-55
2022/11/21 09:44:09;;;;;;;;;;;;;;;6.13;100.00;97967.59;5042836;28;19923;-54
2022/11/21 09:46:36;;;;;;;;;;;;;;;6.47;100.00;97957.16;5041011;28;19960;-54
2022/11/21 09:49:02;;;;;;;;;;;;;;;5.77;100.00;97943.97;5041366;28;19928;-55
2022/11/21 09:51:28;;;;;;;;;;;;;;;6.18;100.00;97968.31;5041711;28;19923;-54
2022/11/21 09:54:04;;;;;;;;;;;;;;;5.93;100.00;97962.22;5041047;28;19920;-55
2022/11/21 09:56:30;;;;;;;;;;;;;;;6.42;100.00;97968.41;5040413;28;19947;-54
2022/11/21 09:59:10;;;;;;;;;;;;;;;6.82;100.00;97973.09;5041000;28;19925;-54
2022/11/21 10:01:35;;;;;;;;;;;;;;;7.06;100.00;97961.16;5042020;28;19924;-55
2022/11/21 10:04:00;;;;;;;;;;;;;;;6.90;100.00;97949.78;5040965;28;19917;-55
2022/11/21 10:06:27;;;;;;;;;;;;;;;7.76;100.00;97946.72;5039415;28;19917;-56
2022/11/21 10:09:06;;;;;;;;;;;;;;;8.10;100.00;97924.91;5040370;28;19917;-55
2022/11/21 10:12:35;;;;;;;;;;;;;;;7.87;100.00;97907.88;5056088;28;19923;-56
2022/11/21 10:14:32;;;;;;;;;;;;;;;8.06;100.00;97893.44;5041572;28;20437;-56
2022/11/21 10:17:00;;;;;;;;;;;;;;;8.17;100.00;97877.63;5041712;28;19920;-56
2022/11/21 10:19:35;;;;;;;;;;;;;;;7.77;100.00;97865.53;5039332;28;20003;-56
2022/11/21 10:22:00;;;;;;;;;;;;;;;7.40;100.00;97862.66;5040639;28;20396;-57
2022/11/21 10:24:35;;;;;;;;;;;;;;;7.56;100.00;97867.19;5041257;28;19917;-57
2022/11/21 10:27:24;;;;;;;;;;;;;;;7.62;100.00;97857.56;5041715;28;19982;-57
2022/11/21 10:29:52;;;;;;;;;;;;;;;7.28;100.00;97870.81;5039693;28;19927;-57
2022/11/21 10:32:49;;;;;;;;;;;;;;;7.77;100.00;97873.22;5045749;28;20411;-58
2022/11/21 10:35:25;;;;;;;;;;;;;;;7.31;100.00;97863.00;5028040;28;19930;-58
2022/11/21 10:37:55;;;;;;;;;;;;;;;7.28;100.00;97858.81;5041124;28;19920;-59
2022/11/21 10:40:29;;;;;;;;;;;;;;;7.30;100.00;97864.72;5042273;28;19931;-59
2022/11/21 10:42:55;;;;;;;;;;;;;;;7.81;100.00;97867.91;5040087;28;20281;-59
2022/11/21 10:45:21;;;;;;;;;;;;;;;7.35;100.00;97843.25;5039965;28;19916;-59
2022/11/21 10:47:47;;;;;;;;;;;;;;;8.04;100.00;97849.06;5041277;28;19916;-58
2022/11/21 10:50:31;;;;;;;;;;;;;;;7.89;100.00;97830.03;5041097;28;19974;-59
2022/11/21 10:52:59;;;;;;;;;;;;;;;8.05;100.00;97822.53;5040892;28;19916;-59
2022/11/21 10:55:25;;;;;;;;;;;;;;;8.02;100.00;97814.13;5041783;28;19948;-58
2022/11/21 10:57:50;;;;;;;;;;;;;;;7.85;100.00;97813.09;5039985;28;20377;-58
2022/11/21 11:00:15;;;;;;;;;;;;;;;7.74;100.00;97816.06;5055424;28;20469;-58
2022/11/21 11:02:41;;;;;;;;;;;;;;;7.62;100.00;97800.34;5040818;28;19913;-59
2022/11/21 11:05:16;;;;;;;;;;;;;;;7.86;100.00;97803.66;5039791;28;20051;-58
2022/11/21 11:07:42;;;;;;;;;;;;;;;8.02;100.00;97798.75;5040117;28;20433;-59
2022/11/21 11:10:23;;;;;;;;;;;;;;;7.49;100.00;97798.25;5038627;28;20019;-59
2022/11/21 11:15:32;;;;;;;;;;;;;;;7.79;100.00;97820.19;5044720;28;19970;-59
2022/11/21 11:18:01;;;;;;;;;;;;;;;8.27;100.00;97825.03;5044816;28;19921;-59
2022/11/21 11:20:29;;;;;;;;;;;;;;;7.91;100.00;97817.13;5043127;28;20295;-59
2022/11/21 11:22:54;;;;;;;;;;;;;;;7.40;100.00;97816.53;5044580;28;19963;-59
2022/11/21 11:25:21;;;;;;;;;;;;;;;8.05;100.00;97829.38;5050725;28;20002;-60
2022/11/21 11:27:46;;;;;;;;;;;;;;;7.95;100.00;97836.63;5044320;28;19921;-60
2022/11/21 11:30:14;;;;;;;;;;;;;;;7.94;100.00;97832.41;5042988;28;19924;-60
2022/11/21 11:32:40;;;;;;;;;;;;;;;7.75;100.00;97834.84;5043742;28;19996;-60
2022/11/21 11:35:25;;;;;;;;;;;;;;;7.66;100.00;97843.75;5043861;28;19924;-59
2022/11/21 11:38:02;;;;;;;;;;;;;;;7.96;100.00;97851.94;5045027;28;19959;-59
2022/11/21 11:40:32;;;;;;;;;;;;;;;7.77;100.00;97861.25;5045926;28;19924;-59
2022/11/21 11:47:29;;;;;;;;;;;;;;;7.51;100.00;97870.78;5042956;28;19970;-59
2022/11/21 11:49:22;;;;;;;;;;;;;;;8.45;100.00;97868.81;5044807;28;19920;-58
2022/11/21 11:51:51;;;;;;;;;;;;;;;8.13;100.00;97845.28;5042930;28;21077;-59
2022/11/21 11:54:17;;;;;;;;;;;;;;;8.07;100.00;97830.16;5044575;28;20558;-59
2022/11/21 11:56:42;;;;;;;;;;;;;;;8.09;100.00;97841.19;5043220;28;19920;-59
2022/11/21 11:59:21;;;;;;;;;;;;;;;8.04;100.00;97840.53;5041865;28;20664;-59
2022/11/21 12:02:05;;;;;;;;;;;;;;;8.11;100.00;97842.78;5044309;28;19920;-59
2022/11/21 12:04:36;;;;;;;;;;;;;;;8.43;100.00;97824.44;5042613;28;19974;-59
2022/11/21 12:07:14;;;;;;;;;;;;;;;8.49;100.00;97811.34;5043312;28;20394;-59
2022/11/21 12:09:49;;;;;;;;;;;;;;;8.37;100.00;97805.81;5075077;28;20095;-59
2022/11/21 12:12:15;;;;;;;;;;;;;;;8.51;100.00;97801.88;5042797;28;19971;-60
2022/11/21 12:17:37;;;;;;;;;;;;;;;8.37;100.00;97784.47;5043927;28;19928;-58
2022/11/21 12:20:04;;;;;;;;;;;;;;;8.60;100.00;97775.81;5043826;28;19917;-59
2022/11/21 12:22:29;;;;;;;;;;;;;;;8.48;100.00;97766.06;5043579;28;19917;-59
2022/11/21 12:24:54;;;;;;;;;;;;;;;8.94;100.00;97769.16;5043588;28;20844;-59
2022/11/21 12:27:23;;;;;;;;;;;;;;;8.58;100.00;97746.81;5043039;28;20340;-58
2022/11/21 12:29:48;;;;;;;;;;;;;;;9.43;100.00;97751.47;5041229;28;20954;-58
2022/11/21 12:32:13;;;;;;;;;;;;;;;9.32;100.00;97741.69;5044562;28;19916;-58
2022/11/21 12:34:39;;;;;;;;;;;;;;;9.54;100.00;97733.00;5042974;28;20502;-58
2022/11/21 12:37:07;;;;;;;;;;;;;;;9.39;100.00;97724.25;5043085;28;19920;-58
2022/11/21 12:39:44;;;;;;;;;;;;;;;9.93;100.00;97724.22;5039989;28;19917;-57
2022/11/21 12:44:58;;;;;;;;;;;;;;;9.30;100.00;97717.81;5043264;28;20407;-62
2022/11/21 12:56:49;;;;;;;;;;;;;;;9.59;100.00;97690.72;5041888;28;20062;-58
2022/11/21 12:59:14;;;;;;;;;;;;;;;9.96;100.00;97699.19;5042043;28;19920;-57
2022/11/21 13:01:46;;;;;;;;;;;;;;;9.44;100.00;97676.03;5043583;28;19931;-57
2022/11/21 13:04:21;;;;;;;;;;;;;;;9.56;100.00;97678.03;5043011;28;19917;-58
2022/11/21 13:06:47;;;;;;;;;;;;;;;9.71;100.00;97673.03;5039968;28;19931;-57
2022/11/21 13:09:16;;;;;;;;;;;;;;;8.51;100.00;97664.13;5041653;28;19917;-58
2022/11/21 13:12:01;;;;;;;;;;;;;;;8.83;100.00;97691.81;5040494;28;19913;-58
2022/11/21 13:14:38;;;;;;;;;;;;;;;8.77;100.00;97696.31;5042134;28;20390;-58
2022/11/21 13:17:14;;;;;;;;;;;;;;;8.71;100.00;97686.34;5056344;28;20003;-57
2022/11/21 13:19:52;;;;;;;;;;;;;;;9.14;100.00;97694.59;5040256;28;19913;-57
2022/11/21 13:22:35;;;;;;;;;;;;;;;8.89;100.00;97681.25;5041497;28;19917;-57
2022/11/21 13:25:13;;;;;;;;;;;;;;;9.08;100.00;97679.50;5041906;28;20420;-58